sensor_id;sensor_type;location;lat;lon;timestamp;P1;durP1;ratioP1;P2;durP2;ratioP2
4434;SDS011;46552;52.150;8.428;2023-07-13T00:00:50;14.97;;;4.17;;
4434;SDS011;46552;52.150;8.428;2023-07-13T00:03:17;10.73;;;3.27;;
4434;SDS011;46552;52.150;8.428;2023-07-13T00:05:45;10.80;;;2.97;;
4434;SDS011;46552;52.150;8.428;2023-07-13T00:08:15;7.10;;;2.87;;
4434;SDS011;46552;52.150;8.428;2023-07-13T00:10:42;6.63;;;3.67;;
4434;SDS011;46552;52.150;8.428;2023-07-13T00:13:10;6.67;;;3.07;;
4434;SDS011;46552;52.150;8.428;2023-07-13T00:15:38;6.67;;;2.97;;
4434;SDS011;46552;52.150;8.428;2023-07-13T00:18:05;6.13;;;3.73;;
4434;SDS011;46552;52.150;8.428;2023-07-13T00:20:32;5.90;;;3.07;;
4434;SDS011;46552;52.150;8.428;2023-07-13T00:23:01;5.67;;;2.77;;
4434;SDS011;46552;52.150;8.428;2023-07-13T00:25:29;6.30;;;3.30;;
4434;SDS011;46552;52.150;8.428;2023-07-13T00:27:56;12.80;;;4.00;;
4434;SDS011;46552;52.150;8.428;2023-07-13T00:30:24;9.63;;;3.50;;
4434;SDS011;46552;52.150;8.428;2023-07-13T00:32:52;7.13;;;3.27;;
4434;SDS011;46552;52.150;8.428;2023-07-13T00:35:19;5.97;;;4.03;;
4434;SDS011;46552;52.150;8.428;2023-07-13T00:37:46;6.87;;;3.90;;
4434;SDS011;46552;52.150;8.428;2023-07-13T00:40:17;7.33;;;3.00;;
4434;SDS011;46552;52.150;8.428;2023-07-13T00:42:45;8.40;;;4.37;;
4434;SDS011;46552;52.150;8.428;2023-07-13T00:48:18;6.70;;;3.67;;
4434;SDS011;46552;52.150;8.428;2023-07-13T00:50:48;12.47;;;3.97;;
4434;SDS011;46552;52.150;8.428;2023-07-13T00:53:18;7.63;;;4.17;;
4434;SDS011;46552;52.150;8.428;2023-07-13T00:55:46;8.87;;;3.97;;
4434;SDS011;46552;52.150;8.428;2023-07-13T00:58:16;21.93;;;4.17;;
4434;SDS011;46552;52.150;8.428;2023-07-13T01:04:20;10.40;;;3.60;;
4434;SDS011;46552;52.150;8.428;2023-07-13T01:06:49;8.70;;;3.40;;
4434;SDS011;46552;52.150;8.428;2023-07-13T01:09:16;5.93;;;3.63;;
4434;SDS011;46552;52.150;8.428;2023-07-13T01:11:44;7.23;;;4.20;;
4434;SDS011;46552;52.150;8.428;2023-07-13T01:14:13;10.93;;;3.87;;
4434;SDS011;46552;52.150;8.428;2023-07-13T01:16:42;7.20;;;4.23;;
4434;SDS011;46552;52.150;8.428;2023-07-13T01:19:13;11.93;;;4.00;;
4434;SDS011;46552;52.150;8.428;2023-07-13T01:21:51;10.30;;;4.03;;
4434;SDS011;46552;52.150;8.428;2023-07-13T01:24:19;8.23;;;3.60;;
4434;SDS011;46552;52.150;8.428;2023-07-13T01:26:46;9.40;;;3.33;;
4434;SDS011;46552;52.150;8.428;2023-07-13T01:29:13;7.73;;;4.27;;
4434;SDS011;46552;52.150;8.428;2023-07-13T01:31:41;22.80;;;3.40;;
4434;SDS011;46552;52.150;8.428;2023-07-13T01:34:09;10.27;;;3.77;;
4434;SDS011;46552;52.150;8.428;2023-07-13T01:36:37;8.37;;;4.00;;
4434;SDS011;46552;52.150;8.428;2023-07-13T01:39:05;10.27;;;4.30;;
4434;SDS011;46552;52.150;8.428;2023-07-13T01:41:32;7.63;;;4.37;;
4434;SDS011;46552;52.150;8.428;2023-07-13T01:44:00;10.73;;;3.47;;
4434;SDS011;46552;52.150;8.428;2023-07-13T01:46:28;8.17;;;4.20;;
4434;SDS011;46552;52.150;8.428;2023-07-13T01:48:55;14.70;;;4.00;;
4434;SDS011;46552;52.150;8.428;2023-07-13T01:51:22;14.60;;;4.87;;
4434;SDS011;46552;52.150;8.428;2023-07-13T01:53:49;6.70;;;3.93;;
4434;SDS011;46552;52.150;8.428;2023-07-13T01:56:18;9.83;;;4.40;;
4434;SDS011;46552;52.150;8.428;2023-07-13T01:58:45;10.50;;;4.60;;
4434;SDS011;46552;52.150;8.428;2023-07-13T02:01:13;13.03;;;5.00;;
4434;SDS011;46552;52.150;8.428;2023-07-13T02:03:40;5.13;;;3.97;;
4434;SDS011;46552;52.150;8.428;2023-07-13T02:06:07;8.80;;;5.27;;
4434;SDS011;46552;52.150;8.428;2023-07-13T02:08:35;13.73;;;5.10;;
4434;SDS011;46552;52.150;8.428;2023-07-13T02:11:02;8.70;;;4.90;;
4434;SDS011;46552;52.150;8.428;2023-07-13T02:13:31;8.60;;;4.73;;
4434;SDS011;46552;52.150;8.428;2023-07-13T02:15:58;12.67;;;4.30;;
4434;SDS011;46552;52.150;8.428;2023-07-13T02:18:25;12.30;;;4.47;;
4434;SDS011;46552;52.150;8.428;2023-07-13T02:20:53;12.03;;;4.47;;
4434;SDS011;46552;52.150;8.428;2023-07-13T02:23:20;7.50;;;4.10;;
4434;SDS011;46552;52.150;8.428;2023-07-13T02:25:47;13.07;;;4.80;;
4434;SDS011;46552;52.150;8.428;2023-07-13T02:28:15;15.60;;;5.30;;
4434;SDS011;46552;52.150;8.428;2023-07-13T02:30:44;11.33;;;4.63;;
4434;SDS011;46552;52.150;8.428;2023-07-13T02:33:11;8.73;;;3.73;;
4434;SDS011;46552;52.150;8.428;2023-07-13T02:35:38;22.00;;;5.13;;
4434;SDS011;46552;52.150;8.428;2023-07-13T02:38:06;12.13;;;5.07;;
4434;SDS011;46552;52.150;8.428;2023-07-13T02:40:33;8.40;;;4.47;;
4434;SDS011;46552;52.150;8.428;2023-07-13T02:43:01;8.97;;;4.40;;
4434;SDS011;46552;52.150;8.428;2023-07-13T02:45:29;11.00;;;4.40;;
4434;SDS011;46552;52.150;8.428;2023-07-13T02:47:58;7.60;;;4.10;;
4434;SDS011;46552;52.150;8.428;2023-07-13T02:50:25;9.77;;;4.43;;
4434;SDS011;46552;52.150;8.428;2023-07-13T02:52:52;9.03;;;4.20;;
4434;SDS011;46552;52.150;8.428;2023-07-13T02:55:20;10.70;;;3.93;;
4434;SDS011;46552;52.150;8.428;2023-07-13T02:57:47;16.50;;;5.00;;
4434;SDS011;46552;52.150;8.428;2023-07-13T03:00:15;12.00;;;4.57;;
4434;SDS011;46552;52.150;8.428;2023-07-13T03:02:43;9.70;;;4.30;;
4434;SDS011;46552;52.150;8.428;2023-07-13T03:05:12;16.80;;;5.20;;
4434;SDS011;46552;52.150;8.428;2023-07-13T03:07:40;10.90;;;4.40;;
4434;SDS011;46552;52.150;8.428;2023-07-13T03:10:08;9.23;;;4.57;;
4434;SDS011;46552;52.150;8.428;2023-07-13T03:12:35;13.73;;;5.07;;
4434;SDS011;46552;52.150;8.428;2023-07-13T03:15:02;6.93;;;4.27;;
4434;SDS011;46552;52.150;8.428;2023-07-13T03:17:30;13.00;;;5.10;;
4434;SDS011;46552;52.150;8.428;2023-07-13T03:19:57;18.23;;;5.37;;
4434;SDS011;46552;52.150;8.428;2023-07-13T03:22:26;8.07;;;5.20;;
4434;SDS011;46552;52.150;8.428;2023-07-13T03:24:54;21.00;;;6.20;;
4434;SDS011;46552;52.150;8.428;2023-07-13T03:27:21;11.80;;;4.93;;
4434;SDS011;46552;52.150;8.428;2023-07-13T03:29:49;9.40;;;4.50;;
4434;SDS011;46552;52.150;8.428;2023-07-13T03:32:16;11.10;;;4.87;;
4434;SDS011;46552;52.150;8.428;2023-07-13T03:34:43;12.60;;;5.13;;
4434;SDS011;46552;52.150;8.428;2023-07-13T03:37:11;11.40;;;5.00;;
4434;SDS011;46552;52.150;8.428;2023-07-13T03:39:39;13.87;;;4.90;;
4434;SDS011;46552;52.150;8.428;2023-07-13T03:42:07;18.87;;;6.10;;
4434;SDS011;46552;52.150;8.428;2023-07-13T03:44:34;10.00;;;5.07;;
4434;SDS011;46552;52.150;8.428;2023-07-13T03:47:02;11.80;;;4.97;;
4434;SDS011;46552;52.150;8.428;2023-07-13T03:49:31;9.10;;;4.57;;
4434;SDS011;46552;52.150;8.428;2023-07-13T03:52:00;9.40;;;4.03;;
4434;SDS011;46552;52.150;8.428;2023-07-13T03:54:27;10.30;;;3.57;;
4434;SDS011;46552;52.150;8.428;2023-07-13T03:56:57;11.33;;;4.63;;
4434;SDS011;46552;52.150;8.428;2023-07-13T03:59:24;10.80;;;4.20;;
4434;SDS011;46552;52.150;8.428;2023-07-13T04:01:52;15.13;;;4.47;;
4434;SDS011;46552;52.150;8.428;2023-07-13T04:04:20;13.13;;;3.80;;
4434;SDS011;46552;52.150;8.428;2023-07-13T04:06:47;10.73;;;4.40;;
4434;SDS011;46552;52.150;8.428;2023-07-13T04:09:14;11.53;;;4.40;;
4434;SDS011;46552;52.150;8.428;2023-07-13T04:11:41;15.10;;;4.40;;
4434;SDS011;46552;52.150;8.428;2023-07-13T04:14:10;13.83;;;5.47;;
4434;SDS011;46552;52.150;8.428;2023-07-13T04:16:39;7.00;;;4.20;;
4434;SDS011;46552;52.150;8.428;2023-07-13T04:19:07;5.20;;;3.73;;
4434;SDS011;46552;52.150;8.428;2023-07-13T04:21:35;14.27;;;4.77;;
4434;SDS011;46552;52.150;8.428;2023-07-13T04:24:03;10.20;;;4.10;;
4434;SDS011;46552;52.150;8.428;2023-07-13T04:26:31;10.00;;;3.93;;
4434;SDS011;46552;52.150;8.428;2023-07-13T04:29:01;10.93;;;3.90;;
4434;SDS011;46552;52.150;8.428;2023-07-13T04:31:30;13.90;;;4.20;;
4434;SDS011;46552;52.150;8.428;2023-07-13T04:33:58;8.37;;;3.47;;
4434;SDS011;46552;52.150;8.428;2023-07-13T04:36:26;8.57;;;3.40;;
4434;SDS011;46552;52.150;8.428;2023-07-13T04:38:54;12.23;;;4.43;;
4434;SDS011;46552;52.150;8.428;2023-07-13T04:41:21;11.23;;;3.90;;
4434;SDS011;46552;52.150;8.428;2023-07-13T04:43:48;10.10;;;3.80;;
4434;SDS011;46552;52.150;8.428;2023-07-13T04:46:17;6.20;;;3.30;;
4434;SDS011;46552;52.150;8.428;2023-07-13T04:48:45;11.53;;;3.80;;
4434;SDS011;46552;52.150;8.428;2023-07-13T04:51:13;8.30;;;3.40;;
4434;SDS011;46552;52.150;8.428;2023-07-13T04:53:40;11.50;;;4.50;;
4434;SDS011;46552;52.150;8.428;2023-07-13T04:56:08;12.67;;;3.67;;
4434;SDS011;46552;52.150;8.428;2023-07-13T04:58:35;12.63;;;5.00;;
4434;SDS011;46552;52.150;8.428;2023-07-13T05:01:03;10.33;;;3.20;;
4434;SDS011;46552;52.150;8.428;2023-07-13T05:03:32;8.30;;;3.43;;
4434;SDS011;46552;52.150;8.428;2023-07-13T05:06:03;18.17;;;3.63;;
4434;SDS011;46552;52.150;8.428;2023-07-13T05:08:31;9.40;;;3.60;;
4434;SDS011;46552;52.150;8.428;2023-07-13T05:10:59;8.17;;;3.33;;
4434;SDS011;46552;52.150;8.428;2023-07-13T05:13:26;12.37;;;3.50;;
4434;SDS011;46552;52.150;8.428;2023-07-13T05:15:57;12.10;;;4.40;;
4434;SDS011;46552;52.150;8.428;2023-07-13T05:18:26;11.37;;;3.80;;
4434;SDS011;46552;52.150;8.428;2023-07-13T05:20:57;6.30;;;3.40;;
4434;SDS011;46552;52.150;8.428;2023-07-13T05:23:27;9.30;;;3.60;;
4434;SDS011;46552;52.150;8.428;2023-07-13T05:25:55;13.53;;;3.60;;
4434;SDS011;46552;52.150;8.428;2023-07-13T05:28:23;14.47;;;3.80;;
4434;SDS011;46552;52.150;8.428;2023-07-13T05:30:50;10.23;;;3.60;;
4434;SDS011;46552;52.150;8.428;2023-07-13T05:33:19;7.10;;;3.17;;
4434;SDS011;46552;52.150;8.428;2023-07-13T05:35:47;7.50;;;3.20;;
4434;SDS011;46552;52.150;8.428;2023-07-13T05:38:14;9.70;;;4.03;;
4434;SDS011;46552;52.150;8.428;2023-07-13T05:40:43;15.00;;;3.80;;
4434;SDS011;46552;52.150;8.428;2023-07-13T05:43:11;5.90;;;2.90;;
4434;SDS011;46552;52.150;8.428;2023-07-13T05:45:40;20.43;;;4.60;;
4434;SDS011;46552;52.150;8.428;2023-07-13T05:48:07;10.37;;;3.17;;
4434;SDS011;46552;52.150;8.428;2023-07-13T05:50:35;6.47;;;3.07;;
4434;SDS011;46552;52.150;8.428;2023-07-13T05:53:02;12.73;;;3.17;;
4434;SDS011;46552;52.150;8.428;2023-07-13T05:55:30;15.33;;;3.27;;
4434;SDS011;46552;52.150;8.428;2023-07-13T05:57:58;12.90;;;3.10;;
4434;SDS011;46552;52.150;8.428;2023-07-13T06:00:26;9.13;;;2.73;;
4434;SDS011;46552;52.150;8.428;2023-07-13T06:02:53;16.43;;;3.57;;
4434;SDS011;46552;52.150;8.428;2023-07-13T06:05:21;10.60;;;3.90;;
4434;SDS011;46552;52.150;8.428;2023-07-13T06:07:48;10.90;;;3.70;;
4434;SDS011;46552;52.150;8.428;2023-07-13T06:10:15;16.00;;;4.20;;
4434;SDS011;46552;52.150;8.428;2023-07-13T06:12:42;12.33;;;3.60;;
4434;SDS011;46552;52.150;8.428;2023-07-13T06:15:11;6.27;;;3.20;;
4434;SDS011;46552;52.150;8.428;2023-07-13T06:17:39;9.43;;;2.90;;
4434;SDS011;46552;52.150;8.428;2023-07-13T06:20:07;12.90;;;3.53;;
4434;SDS011;46552;52.150;8.428;2023-07-13T06:22:34;10.10;;;2.87;;
4434;SDS011;46552;52.150;8.428;2023-07-13T06:25:02;8.37;;;3.00;;
4434;SDS011;46552;52.150;8.428;2023-07-13T06:27:29;13.40;;;3.40;;
4434;SDS011;46552;52.150;8.428;2023-07-13T06:29:57;9.23;;;3.37;;
4434;SDS011;46552;52.150;8.428;2023-07-13T06:32:25;12.83;;;2.60;;
4434;SDS011;46552;52.150;8.428;2023-07-13T06:34:52;13.50;;;4.10;;
4434;SDS011;46552;52.150;8.428;2023-07-13T06:37:19;16.63;;;3.53;;
4434;SDS011;46552;52.150;8.428;2023-07-13T06:39:47;7.73;;;3.60;;
4434;SDS011;46552;52.150;8.428;2023-07-13T06:42:15;11.63;;;3.47;;
4434;SDS011;46552;52.150;8.428;2023-07-13T06:44:43;12.53;;;3.70;;
4434;SDS011;46552;52.150;8.428;2023-07-13T06:47:10;13.80;;;3.80;;
4434;SDS011;46552;52.150;8.428;2023-07-13T06:49:39;19.87;;;4.97;;
4434;SDS011;46552;52.150;8.428;2023-07-13T06:52:07;18.73;;;4.60;;
4434;SDS011;46552;52.150;8.428;2023-07-13T06:54:34;12.20;;;4.13;;
4434;SDS011;46552;52.150;8.428;2023-07-13T06:57:02;13.27;;;3.67;;
4434;SDS011;46552;52.150;8.428;2023-07-13T06:59:29;11.80;;;3.97;;
4434;SDS011;46552;52.150;8.428;2023-07-13T07:01:56;12.53;;;3.73;;
4434;SDS011;46552;52.150;8.428;2023-07-13T07:04:23;17.90;;;4.07;;
4434;SDS011;46552;52.150;8.428;2023-07-13T07:06:52;8.60;;;3.80;;
4434;SDS011;46552;52.150;8.428;2023-07-13T07:09:19;19.03;;;4.83;;
4434;SDS011;46552;52.150;8.428;2023-07-13T07:11:46;12.13;;;4.13;;
4434;SDS011;46552;52.150;8.428;2023-07-13T07:14:14;17.40;;;4.87;;
4434;SDS011;46552;52.150;8.428;2023-07-13T07:16:41;10.43;;;3.93;;
4434;SDS011;46552;52.150;8.428;2023-07-13T07:19:09;10.57;;;5.10;;
4434;SDS011;46552;52.150;8.428;2023-07-13T07:21:36;12.57;;;4.47;;
4434;SDS011;46552;52.150;8.428;2023-07-13T07:24:05;12.60;;;4.40;;
4434;SDS011;46552;52.150;8.428;2023-07-13T07:26:33;12.73;;;5.07;;
4434;SDS011;46552;52.150;8.428;2023-07-13T07:29:01;16.83;;;4.40;;
4434;SDS011;46552;52.150;8.428;2023-07-13T07:31:28;26.47;;;5.00;;
4434;SDS011;46552;52.150;8.428;2023-07-13T07:33:55;11.40;;;4.80;;
4434;SDS011;46552;52.150;8.428;2023-07-13T07:36:22;14.37;;;4.40;;
4434;SDS011;46552;52.150;8.428;2023-07-13T07:38:50;8.90;;;3.80;;
4434;SDS011;46552;52.150;8.428;2023-07-13T07:41:19;10.80;;;4.33;;
4434;SDS011;46552;52.150;8.428;2023-07-13T07:43:46;12.63;;;4.20;;
4434;SDS011;46552;52.150;8.428;2023-07-13T07:46:13;17.03;;;5.33;;
4434;SDS011;46552;52.150;8.428;2023-07-13T07:48:41;15.47;;;4.67;;
4434;SDS011;46552;52.150;8.428;2023-07-13T07:51:08;14.87;;;4.00;;
4434;SDS011;46552;52.150;8.428;2023-07-13T07:53:35;24.13;;;5.50;;
4434;SDS011;46552;52.150;8.428;2023-07-13T07:56:03;12.40;;;3.93;;
4434;SDS011;46552;52.150;8.428;2023-07-13T08:01:03;12.30;;;4.07;;
4434;SDS011;46552;52.150;8.428;2023-07-13T08:03:32;15.10;;;4.40;;
4434;SDS011;46552;52.150;8.428;2023-07-13T08:05:59;16.07;;;4.17;;
4434;SDS011;46552;52.150;8.428;2023-07-13T08:08:27;12.13;;;3.87;;
4434;SDS011;46552;52.150;8.428;2023-07-13T08:10:54;10.73;;;4.10;;
4434;SDS011;46552;52.150;8.428;2023-07-13T08:13:21;13.10;;;3.17;;
4434;SDS011;46552;52.150;8.428;2023-07-13T08:15:50;14.73;;;3.83;;
4434;SDS011;46552;52.150;8.428;2023-07-13T08:18:17;10.77;;;4.13;;
4434;SDS011;46552;52.150;8.428;2023-07-13T08:20:45;17.30;;;3.83;;
4434;SDS011;46552;52.150;8.428;2023-07-13T08:23:12;8.70;;;3.40;;
4434;SDS011;46552;52.150;8.428;2023-07-13T08:25:41;21.33;;;4.80;;
4434;SDS011;46552;52.150;8.428;2023-07-13T08:28:08;12.13;;;2.93;;
4434;SDS011;46552;52.150;8.428;2023-07-13T08:30:36;9.40;;;3.10;;
4434;SDS011;46552;52.150;8.428;2023-07-13T08:33:05;10.37;;;3.23;;
4434;SDS011;46552;52.150;8.428;2023-07-13T08:35:32;11.80;;;3.13;;
4434;SDS011;46552;52.150;8.428;2023-07-13T08:37:59;12.77;;;2.53;;
4434;SDS011;46552;52.150;8.428;2023-07-13T08:40:26;10.57;;;2.90;;
4434;SDS011;46552;52.150;8.428;2023-07-13T08:42:54;9.60;;;3.30;;
4434;SDS011;46552;52.150;8.428;2023-07-13T08:45:24;7.40;;;2.63;;
4434;SDS011;46552;52.150;8.428;2023-07-13T08:47:58;8.80;;;3.13;;
4434;SDS011;46552;52.150;8.428;2023-07-13T08:50:30;11.03;;;2.77;;
4434;SDS011;46552;52.150;8.428;2023-07-13T08:53:02;14.50;;;3.37;;
4434;SDS011;46552;52.150;8.428;2023-07-13T08:55:31;17.60;;;2.60;;
4434;SDS011;46552;52.150;8.428;2023-07-13T08:58:05;9.27;;;3.10;;
4434;SDS011;46552;52.150;8.428;2023-07-13T09:00:41;11.30;;;2.33;;
4434;SDS011;46552;52.150;8.428;2023-07-13T09:03:16;4.57;;;2.47;;
4434;SDS011;46552;52.150;8.428;2023-07-13T09:05:51;8.70;;;2.60;;
4434;SDS011;46552;52.150;8.428;2023-07-13T09:11:16;6.83;;;1.80;;
4434;SDS011;46552;52.150;8.428;2023-07-13T09:14:01;10.27;;;2.00;;
4434;SDS011;46552;52.150;8.428;2023-07-13T09:16:38;7.57;;;2.37;;
4434;SDS011;46552;52.150;8.428;2023-07-13T09:19:08;7.53;;;3.37;;
4434;SDS011;46552;52.150;8.428;2023-07-13T09:21:46;11.47;;;2.93;;
4434;SDS011;46552;52.150;8.428;2023-07-13T09:24:28;5.53;;;2.13;;
4434;SDS011;46552;52.150;8.428;2023-07-13T09:27:05;7.20;;;2.57;;
4434;SDS011;46552;52.150;8.428;2023-07-13T09:29:43;5.80;;;2.17;;
4434;SDS011;46552;52.150;8.428;2023-07-13T09:32:14;9.07;;;2.60;;
4434;SDS011;46552;52.150;8.428;2023-07-13T09:34:49;9.30;;;2.47;;
4434;SDS011;46552;52.150;8.428;2023-07-13T09:37:19;7.63;;;2.10;;
4434;SDS011;46552;52.150;8.428;2023-07-13T09:39:47;5.03;;;1.83;;
4434;SDS011;46552;52.150;8.428;2023-07-13T09:42:18;5.70;;;1.80;;
4434;SDS011;46552;52.150;8.428;2023-07-13T09:44:53;5.87;;;1.83;;
4434;SDS011;46552;52.150;8.428;2023-07-13T09:47:22;5.30;;;2.40;;
4434;SDS011;46552;52.150;8.428;2023-07-13T09:49:55;8.33;;;2.17;;
4434;SDS011;46552;52.150;8.428;2023-07-13T09:52:26;6.50;;;2.20;;
4434;SDS011;46552;52.150;8.428;2023-07-13T09:54:55;7.67;;;2.30;;
4434;SDS011;46552;52.150;8.428;2023-07-13T09:57:24;14.00;;;2.43;;
4434;SDS011;46552;52.150;8.428;2023-07-13T09:59:53;7.93;;;2.90;;
4434;SDS011;46552;52.150;8.428;2023-07-13T10:02:24;4.33;;;2.20;;
4434;SDS011;46552;52.150;8.428;2023-07-13T10:04:55;8.13;;;2.83;;
4434;SDS011;46552;52.150;8.428;2023-07-13T10:07:25;8.50;;;2.43;;
4434;SDS011;46552;52.150;8.428;2023-07-13T10:09:53;7.47;;;2.70;;
4434;SDS011;46552;52.150;8.428;2023-07-13T10:12:21;8.53;;;1.97;;
4434;SDS011;46552;52.150;8.428;2023-07-13T10:14:50;8.80;;;2.20;;
4434;SDS011;46552;52.150;8.428;2023-07-13T10:17:24;4.30;;;2.00;;
4434;SDS011;46552;52.150;8.428;2023-07-13T10:19:55;8.63;;;2.90;;
4434;SDS011;46552;52.150;8.428;2023-07-13T10:22:27;8.77;;;2.03;;
4434;SDS011;46552;52.150;8.428;2023-07-13T10:25:00;5.37;;;2.60;;
4434;SDS011;46552;52.150;8.428;2023-07-13T10:27:29;7.47;;;2.30;;
4434;SDS011;46552;52.150;8.428;2023-07-13T10:30:01;6.10;;;2.37;;
4434;SDS011;46552;52.150;8.428;2023-07-13T10:32:34;18.33;;;2.83;;
4434;SDS011;46552;52.150;8.428;2023-07-13T10:35:01;6.93;;;2.50;;
4434;SDS011;46552;52.150;8.428;2023-07-13T10:37:37;6.03;;;2.10;;
4434;SDS011;46552;52.150;8.428;2023-07-13T10:40:12;5.77;;;2.27;;
4434;SDS011;46552;52.150;8.428;2023-07-13T10:42:43;6.87;;;3.23;;
4434;SDS011;46552;52.150;8.428;2023-07-13T10:45:14;5.93;;;3.03;;
4434;SDS011;46552;52.150;8.428;2023-07-13T10:47:43;5.43;;;2.77;;
4434;SDS011;46552;52.150;8.428;2023-07-13T10:50:13;16.50;;;3.00;;
4434;SDS011;46552;52.150;8.428;2023-07-13T10:52:46;4.70;;;2.20;;
4434;SDS011;46552;52.150;8.428;2023-07-13T10:55:31;7.30;;;2.00;;
4434;SDS011;46552;52.150;8.428;2023-07-13T10:58:01;7.20;;;2.67;;
4434;SDS011;46552;52.150;8.428;2023-07-13T11:00:32;8.87;;;3.10;;
4434;SDS011;46552;52.150;8.428;2023-07-13T11:03:10;10.27;;;3.43;;
4434;SDS011;46552;52.150;8.428;2023-07-13T11:05:41;4.87;;;2.17;;
4434;SDS011;46552;52.150;8.428;2023-07-13T11:08:16;6.07;;;2.40;;
4434;SDS011;46552;52.150;8.428;2023-07-13T11:10:51;9.53;;;3.23;;
4434;SDS011;46552;52.150;8.428;2023-07-13T11:13:36;10.00;;;3.37;;
4434;SDS011;46552;52.150;8.428;2023-07-13T11:16:33;6.10;;;2.30;;
4434;SDS011;46552;52.150;8.428;2023-07-13T11:22:21;9.20;;;3.20;;
4434;SDS011;46552;52.150;8.428;2023-07-13T11:24:54;20.70;;;3.50;;
4434;SDS011;46552;52.150;8.428;2023-07-13T11:33:03;11.03;;;2.60;;
4434;SDS011;46552;52.150;8.428;2023-07-13T11:35:38;10.60;;;3.13;;
4434;SDS011;46552;52.150;8.428;2023-07-13T11:38:15;4.57;;;2.80;;
4434;SDS011;46552;52.150;8.428;2023-07-13T11:40:46;8.87;;;2.57;;
4434;SDS011;46552;52.150;8.428;2023-07-13T11:43:16;7.50;;;3.10;;
4434;SDS011;46552;52.150;8.428;2023-07-13T11:45:44;5.57;;;2.73;;
4434;SDS011;46552;52.150;8.428;2023-07-13T11:48:21;6.47;;;2.80;;
4434;SDS011;46552;52.150;8.428;2023-07-13T11:50:55;8.00;;;3.37;;
4434;SDS011;46552;52.150;8.428;2023-07-13T11:53:26;6.40;;;2.60;;
4434;SDS011;46552;52.150;8.428;2023-07-13T11:55:57;9.20;;;2.50;;
4434;SDS011;46552;52.150;8.428;2023-07-13T11:58:25;9.53;;;3.13;;
4434;SDS011;46552;52.150;8.428;2023-07-13T12:00:55;6.30;;;2.90;;
4434;SDS011;46552;52.150;8.428;2023-07-13T12:03:26;14.13;;;4.47;;
4434;SDS011;46552;52.150;8.428;2023-07-13T12:05:59;4.97;;;3.20;;
4434;SDS011;46552;52.150;8.428;2023-07-13T12:08:28;8.57;;;3.33;;
4434;SDS011;46552;52.150;8.428;2023-07-13T12:10:58;7.50;;;2.67;;
4434;SDS011;46552;52.150;8.428;2023-07-13T12:13:28;12.93;;;3.53;;
4434;SDS011;46552;52.150;8.428;2023-07-13T12:15:55;10.10;;;3.50;;
4434;SDS011;46552;52.150;8.428;2023-07-13T12:18:23;5.00;;;2.67;;
4434;SDS011;46552;52.150;8.428;2023-07-13T12:20:57;6.30;;;2.97;;
4434;SDS011;46552;52.150;8.428;2023-07-13T12:23:28;6.00;;;2.93;;
4434;SDS011;46552;52.150;8.428;2023-07-13T12:25:58;8.03;;;2.80;;
4434;SDS011;46552;52.150;8.428;2023-07-13T12:28:32;6.40;;;2.93;;
4434;SDS011;46552;52.150;8.428;2023-07-13T12:31:00;5.93;;;3.37;;
4434;SDS011;46552;52.150;8.428;2023-07-13T12:33:29;10.90;;;3.80;;
4434;SDS011;46552;52.150;8.428;2023-07-13T12:35:59;8.27;;;3.17;;
4434;SDS011;46552;52.150;8.428;2023-07-13T12:38:29;8.40;;;3.20;;
4434;SDS011;46552;52.150;8.428;2023-07-13T12:40:59;6.17;;;2.57;;
4434;SDS011;46552;52.150;8.428;2023-07-13T12:43:28;3.40;;;1.60;;
4434;SDS011;46552;52.150;8.428;2023-07-13T12:46:03;7.33;;;2.80;;
4434;SDS011;46552;52.150;8.428;2023-07-13T12:48:37;4.63;;;2.23;;
4434;SDS011;46552;52.150;8.428;2023-07-13T12:51:08;11.63;;;2.27;;
4434;SDS011;46552;52.150;8.428;2023-07-13T12:53:38;8.33;;;2.10;;
4434;SDS011;46552;52.150;8.428;2023-07-13T12:56:11;3.83;;;1.73;;
4434;SDS011;46552;52.150;8.428;2023-07-13T12:58:44;4.97;;;2.70;;
4434;SDS011;46552;52.150;8.428;2023-07-13T13:01:19;5.20;;;2.10;;
4434;SDS011;46552;52.150;8.428;2023-07-13T13:03:49;5.30;;;2.60;;
4434;SDS011;46552;52.150;8.428;2023-07-13T13:06:22;6.33;;;1.70;;
4434;SDS011;46552;52.150;8.428;2023-07-13T13:08:51;8.30;;;1.97;;
4434;SDS011;46552;52.150;8.428;2023-07-13T13:11:22;8.40;;;1.67;;
4434;SDS011;46552;52.150;8.428;2023-07-13T13:13:51;7.83;;;2.67;;
4434;SDS011;46552;52.150;8.428;2023-07-13T13:16:20;13.60;;;2.30;;
4434;SDS011;46552;52.150;8.428;2023-07-13T13:18:50;6.20;;;2.20;;
4434;SDS011;46552;52.150;8.428;2023-07-13T13:21:18;6.20;;;1.93;;
4434;SDS011;46552;52.150;8.428;2023-07-13T13:23:47;5.87;;;2.47;;
4434;SDS011;46552;52.150;8.428;2023-07-13T13:26:15;6.10;;;3.17;;
4434;SDS011;46552;52.150;8.428;2023-07-13T13:28:45;12.03;;;2.60;;
4434;SDS011;46552;52.150;8.428;2023-07-13T13:31:13;9.00;;;2.20;;
4434;SDS011;46552;52.150;8.428;2023-07-13T13:33:41;7.53;;;2.60;;
4434;SDS011;46552;52.150;8.428;2023-07-13T13:36:15;6.67;;;3.10;;
4434;SDS011;46552;52.150;8.428;2023-07-13T13:38:44;9.20;;;3.60;;
4434;SDS011;46552;52.150;8.428;2023-07-13T13:41:14;9.60;;;3.50;;
4434;SDS011;46552;52.150;8.428;2023-07-13T13:43:42;5.57;;;2.40;;
4434;SDS011;46552;52.150;8.428;2023-07-13T13:46:13;3.70;;;2.30;;
4434;SDS011;46552;52.150;8.428;2023-07-13T13:48:43;7.30;;;2.77;;
4434;SDS011;46552;52.150;8.428;2023-07-13T13:51:15;9.93;;;3.30;;
4434;SDS011;46552;52.150;8.428;2023-07-13T13:53:43;7.13;;;3.17;;
4434;SDS011;46552;52.150;8.428;2023-07-13T13:56:11;8.70;;;3.77;;
4434;SDS011;46552;52.150;8.428;2023-07-13T13:58:38;6.03;;;2.80;;
4434;SDS011;46552;52.150;8.428;2023-07-13T14:01:12;8.33;;;3.40;;
4434;SDS011;46552;52.150;8.428;2023-07-13T14:03:40;6.07;;;2.93;;
4434;SDS011;46552;52.150;8.428;2023-07-13T14:06:09;5.83;;;2.70;;
4434;SDS011;46552;52.150;8.428;2023-07-13T14:08:38;10.30;;;2.97;;
4434;SDS011;46552;52.150;8.428;2023-07-13T14:11:07;7.00;;;2.80;;
4434;SDS011;46552;52.150;8.428;2023-07-13T14:13:40;4.27;;;2.43;;
4434;SDS011;46552;52.150;8.428;2023-07-13T14:16:12;6.47;;;3.00;;
4434;SDS011;46552;52.150;8.428;2023-07-13T14:18:44;6.90;;;3.10;;
4434;SDS011;46552;52.150;8.428;2023-07-13T14:21:12;10.10;;;3.00;;
4434;SDS011;46552;52.150;8.428;2023-07-13T14:23:40;5.70;;;3.00;;
4434;SDS011;46552;52.150;8.428;2023-07-13T14:26:09;5.47;;;2.60;;
4434;SDS011;46552;52.150;8.428;2023-07-13T14:28:38;11.83;;;2.70;;
4434;SDS011;46552;52.150;8.428;2023-07-13T14:31:09;6.10;;;3.10;;
4434;SDS011;46552;52.150;8.428;2023-07-13T14:33:39;5.43;;;2.90;;
4434;SDS011;46552;52.150;8.428;2023-07-13T14:36:12;9.50;;;2.60;;
4434;SDS011;46552;52.150;8.428;2023-07-13T14:38:47;7.97;;;3.50;;
4434;SDS011;46552;52.150;8.428;2023-07-13T14:41:15;8.90;;;2.20;;
4434;SDS011;46552;52.150;8.428;2023-07-13T14:43:42;7.30;;;3.30;;
4434;SDS011;46552;52.150;8.428;2023-07-13T14:46:11;6.00;;;3.50;;
4434;SDS011;46552;52.150;8.428;2023-07-13T14:48:51;5.70;;;2.70;;
4434;SDS011;46552;52.150;8.428;2023-07-13T14:51:20;7.13;;;3.03;;
4434;SDS011;46552;52.150;8.428;2023-07-13T14:53:47;5.53;;;3.10;;
4434;SDS011;46552;52.150;8.428;2023-07-13T14:56:15;5.60;;;3.17;;
4434;SDS011;46552;52.150;8.428;2023-07-13T14:58:42;6.80;;;3.10;;
4434;SDS011;46552;52.150;8.428;2023-07-13T15:01:11;4.70;;;3.20;;
4434;SDS011;46552;52.150;8.428;2023-07-13T15:03:40;10.80;;;4.00;;
4434;SDS011;46552;52.150;8.428;2023-07-13T15:06:13;9.60;;;3.90;;
4434;SDS011;46552;52.150;8.428;2023-07-13T15:08:41;7.20;;;3.67;;
4434;SDS011;46552;52.150;8.428;2023-07-13T15:11:08;8.63;;;3.73;;
4434;SDS011;46552;52.150;8.428;2023-07-13T15:13:37;6.47;;;4.10;;
4434;SDS011;46552;52.150;8.428;2023-07-13T15:16:10;8.93;;;4.40;;
4434;SDS011;46552;52.150;8.428;2023-07-13T15:18:42;7.57;;;3.93;;
4434;SDS011;46552;52.150;8.428;2023-07-13T15:21:10;22.07;;;4.90;;
4434;SDS011;46552;52.150;8.428;2023-07-13T15:23:40;9.17;;;4.30;;
4434;SDS011;46552;52.150;8.428;2023-07-13T15:26:10;16.57;;;4.40;;
4434;SDS011;46552;52.150;8.428;2023-07-13T15:28:40;11.40;;;5.43;;